sensor_id;sensor_type;location;lat;lon;timestamp;pressure;altitude;pressure_sealevel;temperature;humidity
67931;BME280;54726;52.000;5.954;2022-08-03T00:00:10;101141.63;;;19.52;77.05
67931;BME280;54726;52.000;5.954;2022-08-03T00:01:15;101145.38;;;19.50;77.04
67931;BME280;54726;52.000;5.954;2022-08-03T00:02:15;101139.25;;;19.48;76.90
67931;BME280;54726;52.000;5.954;2022-08-03T00:03:16;101150.34;;;19.43;77.21
67931;BME280;54726;52.000;5.954;2022-08-03T00:04:16;101145.09;;;19.41;77.61
67931;BME280;54726;52.000;5.954;2022-08-03T00:05:17;101139.94;;;19.38;77.09
67931;BME280;54726;52.000;5.954;2022-08-03T00:06:17;101139.41;;;19.33;77.67
67931;BME280;54726;52.000;5.954;2022-08-03T00:07:18;101145.53;;;19.35;77.50
67931;BME280;54726;52.000;5.954;2022-08-03T00:08:18;101144.78;;;19.33;77.57
67931;BME280;54726;52.000;5.954;2022-08-03T00:09:19;101138.88;;;19.28;77.61
67931;BME280;54726;52.000;5.954;2022-08-03T00:10:19;101138.88;;;19.28;77.49
67931;BME280;54726;52.000;5.954;2022-08-03T00:11:20;101132.34;;;19.19;77.58
67931;BME280;54726;52.000;5.954;2022-08-03T00:12:20;101143.72;;;19.23;77.68
67931;BME280;54726;52.000;5.954;2022-08-03T00:13:21;101146.63;;;19.20;77.76
67931;BME280;54726;52.000;5.954;2022-08-03T00:14:23;101145.88;;;19.18;78.26
67931;BME280;54726;52.000;5.954;2022-08-03T00:15:23;101141.47;;;19.17;78.06
67931;BME280;54726;52.000;5.954;2022-08-03T00:16:24;101141.72;;;19.14;78.42
67931;BME280;54726;52.000;5.954;2022-08-03T00:17:24;101148.78;;;19.15;77.85
67931;BME280;54726;52.000;5.954;2022-08-03T00:18:24;101139.97;;;19.13;78.01
67931;BME280;54726;52.000;5.954;2022-08-03T00:19:25;101140.31;;;19.08;78.43
67931;BME280;54726;52.000;5.954;2022-08-03T00:20:25;101144.09;;;19.06;78.28
67931;BME280;54726;52.000;5.954;2022-08-03T00:21:26;101140.63;;;19.04;78.40
67931;BME280;54726;52.000;5.954;2022-08-03T00:22:26;101143.31;;;19.04;78.52
67931;BME280;54726;52.000;5.954;2022-08-03T00:23:26;101144.31;;;19.03;78.60
67931;BME280;54726;52.000;5.954;2022-08-03T00:24:27;101145.25;;;19.01;78.72
67931;BME280;54726;52.000;5.954;2022-08-03T00:25:27;101138.94;;;19.03;78.47
67931;BME280;54726;52.000;5.954;2022-08-03T00:26:28;101136.69;;;18.96;78.42
67931;BME280;54726;52.000;5.954;2022-08-03T00:27:28;101137.84;;;18.92;78.59
67931;BME280;54726;52.000;5.954;2022-08-03T00:28:29;101136.25;;;18.90;78.82
67931;BME280;54726;52.000;5.954;2022-08-03T00:29:31;101139.91;;;18.89;79.04
67931;BME280;54726;52.000;5.954;2022-08-03T00:30:31;101135.38;;;18.89;78.96
67931;BME280;54726;52.000;5.954;2022-08-03T00:31:32;101136.38;;;18.88;79.13
67931;BME280;54726;52.000;5.954;2022-08-03T00:32:32;101141.84;;;18.87;79.06
67931;BME280;54726;52.000;5.954;2022-08-03T00:33:33;101138.53;;;18.83;79.23
67931;BME280;54726;52.000;5.954;2022-08-03T00:34:33;101143.34;;;18.78;79.28
67931;BME280;54726;52.000;5.954;2022-08-03T00:35:34;101142.59;;;18.76;79.44
67931;BME280;54726;52.000;5.954;2022-08-03T00:36:34;101141.75;;;18.75;79.58
67931;BME280;54726;52.000;5.954;2022-08-03T00:37:34;101141.06;;;18.72;79.45
67931;BME280;54726;52.000;5.954;2022-08-03T00:38:35;101133.81;;;18.74;79.70
67931;BME280;54726;52.000;5.954;2022-08-03T00:39:35;101136.56;;;18.72;79.45
67931;BME280;54726;52.000;5.954;2022-08-03T00:40:36;101142.06;;;18.71;79.48
67931;BME280;54726;52.000;5.954;2022-08-03T00:41:36;101145.69;;;18.70;79.66
67931;BME280;54726;52.000;5.954;2022-08-03T00:42:45;101138.06;;;18.64;79.61
67931;BME280;54726;52.000;5.954;2022-08-03T00:43:46;101153.75;;;18.70;79.47
67931;BME280;54726;52.000;5.954;2022-08-03T00:44:48;101147.59;;;18.68;79.50
67931;BME280;54726;52.000;5.954;2022-08-03T00:45:48;101138.06;;;18.64;79.61
67931;BME280;54726;52.000;5.954;2022-08-03T00:46:48;101142.38;;;18.66;79.58
67931;BME280;54726;52.000;5.954;2022-08-03T00:47:49;101144.41;;;18.63;79.75
67931;BME280;54726;52.000;5.954;2022-08-03T00:48:51;101138.28;;;18.61;80.04
67931;BME280;54726;52.000;5.954;2022-08-03T00:49:52;101142.03;;;18.58;79.93
67931;BME280;54726;52.000;5.954;2022-08-03T00:50:53;101133.34;;;18.54;80.22
67931;BME280;54726;52.000;5.954;2022-08-03T00:51:54;101137.09;;;18.52;80.14
67931;BME280;54726;52.000;5.954;2022-08-03T00:52:55;101132.03;;;18.47;80.04
67931;BME280;54726;52.000;5.954;2022-08-03T00:53:56;101136.34;;;18.50;80.21
67931;BME280;54726;52.000;5.954;2022-08-03T00:54:56;101130.97;;;18.50;80.09
67931;BME280;54726;52.000;5.954;2022-08-03T00:55:57;101133.00;;;18.46;80.26
67931;BME280;54726;52.000;5.954;2022-08-03T00:56:58;101127.09;;;18.41;80.61
67931;BME280;54726;52.000;5.954;2022-08-03T00:57:58;101132.66;;;18.38;80.52
67931;BME280;54726;52.000;5.954;2022-08-03T00:59:00;101132.66;;;18.38;80.48
67931;BME280;54726;52.000;5.954;2022-08-03T01:00:03;101126.44;;;18.38;80.75
67931;BME280;54726;52.000;5.954;2022-08-03T01:01:04;101126.31;;;18.39;80.44
67931;BME280;54726;52.000;5.954;2022-08-03T01:02:04;101120.19;;;18.37;80.59
67931;BME280;54726;52.000;5.954;2022-08-03T01:03:05;101128.06;;;18.40;80.39
67931;BME280;54726;52.000;5.954;2022-08-03T01:04:06;101128.25;;;18.37;80.38
67931;BME280;54726;52.000;5.954;2022-08-03T01:05:07;101120.41;;;18.34;80.77
67931;BME280;54726;52.000;5.954;2022-08-03T01:06:14;101120.63;;;18.31;80.73
67931;BME280;54726;52.000;5.954;2022-08-03T01:07:20;101125.25;;;18.29;80.64
67931;BME280;54726;52.000;5.954;2022-08-03T01:08:28;101124.50;;;18.27;80.87
67931;BME280;54726;52.000;5.954;2022-08-03T01:09:39;101108.91;;;18.19;81.09
67931;BME280;54726;52.000;5.954;2022-08-03T01:10:52;101115.88;;;18.22;80.79
67931;BME280;54726;52.000;5.954;2022-08-03T01:11:59;101112.22;;;18.23;80.73
67931;BME280;54726;52.000;5.954;2022-08-03T01:13:07;101110.81;;;18.17;80.90
67931;BME280;54726;52.000;5.954;2022-08-03T01:14:15;101111.72;;;18.18;80.97
67931;BME280;54726;52.000;5.954;2022-08-03T01:15:24;101108.47;;;18.13;81.07
67931;BME280;54726;52.000;5.954;2022-08-03T01:16:29;101112.88;;;18.14;80.97
67931;BME280;54726;52.000;5.954;2022-08-03T01:17:35;101112.00;;;18.13;81.10
67931;BME280;54726;52.000;5.954;2022-08-03T01:18:44;101117.47;;;18.11;81.04
67931;BME280;54726;52.000;5.954;2022-08-03T01:19:48;101119.31;;;18.11;81.20
67931;BME280;54726;52.000;5.954;2022-08-03T01:20:56;101099.09;;;18.05;81.07
67931;BME280;54726;52.000;5.954;2022-08-03T01:22:08;101113.28;;;18.07;81.14
67931;BME280;54726;52.000;5.954;2022-08-03T01:23:26;101117.03;;;18.05;81.34
67931;BME280;54726;52.000;5.954;2022-08-03T01:24:39;101122.72;;;18.00;81.29
67931;BME280;54726;52.000;5.954;2022-08-03T01:25:58;101112.09;;;17.99;81.32
67931;BME280;54726;52.000;5.954;2022-08-03T01:27:06;101105.88;;;17.98;81.36
67931;BME280;54726;52.000;5.954;2022-08-03T01:28:24;101105.97;;;17.97;81.55
67931;BME280;54726;52.000;5.954;2022-08-03T01:29:59;101110.69;;;17.93;81.34
67931;BME280;54726;52.000;5.954;2022-08-03T01:31:05;101111.53;;;17.94;81.08
67931;BME280;54726;52.000;5.954;2022-08-03T01:32:11;101109.72;;;17.94;81.62
67931;BME280;54726;52.000;5.954;2022-08-03T01:33:16;101107.03;;;17.94;81.29
67931;BME280;54726;52.000;5.954;2022-08-03T01:34:19;101110.69;;;17.93;81.33
67931;BME280;54726;52.000;5.954;2022-08-03T01:35:25;101104.84;;;17.86;81.14
67931;BME280;54726;52.000;5.954;2022-08-03T01:36:32;101105.72;;;17.87;81.44
67931;BME280;54726;52.000;5.954;2022-08-03T01:37:38;101112.81;;;17.88;81.47
67931;BME280;54726;52.000;5.954;2022-08-03T01:38:42;101111.09;;;17.87;81.56
67931;BME280;54726;52.000;5.954;2022-08-03T01:39:43;101113.03;;;17.85;81.70
67931;BME280;54726;52.000;5.954;2022-08-03T01:40:45;101101.81;;;17.78;81.80
67931;BME280;54726;52.000;5.954;2022-08-03T01:41:49;101109.56;;;17.83;81.93
67931;BME280;54726;52.000;5.954;2022-08-03T01:42:51;101107.00;;;17.81;81.88
67931;BME280;54726;52.000;5.954;2022-08-03T01:43:55;101108.91;;;17.79;82.10
67931;BME280;54726;52.000;5.954;2022-08-03T01:44:57;101102.69;;;17.79;82.02
67931;BME280;54726;52.000;5.954;2022-08-03T01:46:02;101104.59;;;17.77;81.96
67931;BME280;54726;52.000;5.954;2022-08-03T01:47:03;101105.38;;;17.79;82.05
67931;BME280;54726;52.000;5.954;2022-08-03T01:48:05;101107.28;;;17.77;82.06
67931;BME280;54726;52.000;5.954;2022-08-03T01:49:08;101103.81;;;17.75;82.10
67931;BME280;54726;52.000;5.954;2022-08-03T01:50:11;101096.09;;;17.70;82.20
67931;BME280;54726;52.000;5.954;2022-08-03T01:51:14;101102.19;;;17.72;82.20
67931;BME280;54726;52.000;5.954;2022-08-03T01:52:17;101103.06;;;17.73;82.20
67931;BME280;54726;52.000;5.954;2022-08-03T01:53:19;101101.34;;;17.72;82.39
67931;BME280;54726;52.000;5.954;2022-08-03T01:54:22;101101.47;;;17.70;82.45
67931;BME280;54726;52.000;5.954;2022-08-03T01:55:25;101100.69;;;17.68;82.59
67931;BME280;54726;52.000;5.954;2022-08-03T01:56:26;101099.84;;;17.67;82.59
67931;BME280;54726;52.000;5.954;2022-08-03T01:57:29;101091.22;;;17.62;82.48
67931;BME280;54726;52.000;5.954;2022-08-03T01:58:31;101098.94;;;17.67;82.56
67931;BME280;54726;52.000;5.954;2022-08-03T01:59:35;101099.84;;;17.67;82.73
67931;BME280;54726;52.000;5.954;2022-08-03T02:00:37;101101.75;;;17.65;82.70
67931;BME280;54726;52.000;5.954;2022-08-03T02:01:42;101098.31;;;17.63;82.79
67931;BME280;54726;52.000;5.954;2022-08-03T02:02:43;101101.19;;;17.60;82.88
67931;BME280;54726;52.000;5.954;2022-08-03T02:03:48;101098.72;;;17.57;82.96
67931;BME280;54726;52.000;5.954;2022-08-03T02:04:49;101099.56;;;17.58;82.90
67931;BME280;54726;52.000;5.954;2022-08-03T02:05:52;101098.72;;;17.57;82.93
67931;BME280;54726;52.000;5.954;2022-08-03T02:06:54;101099.56;;;17.58;83.10
67931;BME280;54726;52.000;5.954;2022-08-03T02:07:56;101101.41;;;17.57;83.21
67931;BME280;54726;52.000;5.954;2022-08-03T02:08:58;101095.47;;;17.52;83.12
67931;BME280;54726;52.000;5.954;2022-08-03T02:10:00;101094.22;;;17.58;83.17
67931;BME280;54726;52.000;5.954;2022-08-03T02:11:04;101099.47;;;17.59;83.30
67931;BME280;54726;52.000;5.954;2022-08-03T02:12:07;101104.94;;;17.58;83.25
67931;BME280;54726;52.000;5.954;2022-08-03T02:13:09;101105.13;;;17.55;83.41
67931;BME280;54726;52.000;5.954;2022-08-03T02:14:10;101105.06;;;17.56;83.40
67931;BME280;54726;52.000;5.954;2022-08-03T02:15:11;101100.84;;;17.52;83.35
67931;BME280;54726;52.000;5.954;2022-08-03T02:16:17;101105.34;;;17.52;83.55
67931;BME280;54726;52.000;5.954;2022-08-03T02:17:20;101099.34;;;17.48;83.75
67931;BME280;54726;52.000;5.954;2022-08-03T02:18:23;101092.22;;;17.47;83.74
67931;BME280;54726;52.000;5.954;2022-08-03T02:19:25;101096.84;;;17.45;83.51
67931;BME280;54726;52.000;5.954;2022-08-03T02:20:27;101103.84;;;17.48;83.84
67931;BME280;54726;52.000;5.954;2022-08-03T02:21:31;101096.16;;;17.41;83.79
67931;BME280;54726;52.000;5.954;2022-08-03T02:22:32;101094.19;;;17.45;83.94
67931;BME280;54726;52.000;5.954;2022-08-03T02:23:33;101098.66;;;17.44;83.87
67931;BME280;54726;52.000;5.954;2022-08-03T02:24:34;101101.44;;;17.43;83.99
67931;BME280;54726;52.000;5.954;2022-08-03T02:25:40;101095.22;;;17.42;83.96
67931;BME280;54726;52.000;5.954;2022-08-03T02:26:42;101095.44;;;17.39;83.87
67931;BME280;54726;52.000;5.954;2022-08-03T02:27:48;101084.88;;;17.36;84.22
67931;BME280;54726;52.000;5.954;2022-08-03T02:28:51;101087.47;;;17.38;84.09
67931;BME280;54726;52.000;5.954;2022-08-03T02:29:57;101098.13;;;17.39;84.07
67931;BME280;54726;52.000;5.954;2022-08-03T02:31:02;101095.59;;;17.36;84.16
67931;BME280;54726;52.000;5.954;2022-08-03T02:32:04;101090.25;;;17.36;84.24
67931;BME280;54726;52.000;5.954;2022-08-03T02:33:10;101089.59;;;17.33;84.20
67931;BME280;54726;52.000;5.954;2022-08-03T02:34:13;101088.66;;;17.34;83.99
67931;BME280;54726;52.000;5.954;2022-08-03T02:35:16;101094.75;;;17.36;84.18
67931;BME280;54726;52.000;5.954;2022-08-03T02:36:21;101084.44;;;17.30;84.19
67931;BME280;54726;52.000;5.954;2022-08-03T02:37:26;101093.13;;;17.33;84.27
67931;BME280;54726;52.000;5.954;2022-08-03T02:38:32;101088.72;;;17.32;84.49
67931;BME280;54726;52.000;5.954;2022-08-03T02:39:34;101087.09;;;17.30;84.51
67931;BME280;54726;52.000;5.954;2022-08-03T02:40:35;101061.53;;;17.11;84.59
67931;BME280;54726;52.000;5.954;2022-08-03T02:41:42;101090.66;;;17.30;84.77
67931;BME280;54726;52.000;5.954;2022-08-03T02:42:45;101080.97;;;17.28;84.67
67931;BME280;54726;52.000;5.954;2022-08-03T02:43:51;101086.34;;;17.28;84.62
67931;BME280;54726;52.000;5.954;2022-08-03T02:44:54;101079.28;;;17.27;84.64
67931;BME280;54726;52.000;5.954;2022-08-03T02:45:56;101082.94;;;17.26;84.66
67931;BME280;54726;52.000;5.954;2022-08-03T02:46:59;101078.50;;;17.25;84.67
67931;BME280;54726;52.000;5.954;2022-08-03T02:48:03;101077.75;;;17.22;84.66
67931;BME280;54726;52.000;5.954;2022-08-03T02:49:06;101080.53;;;17.21;84.91
67931;BME280;54726;52.000;5.954;2022-08-03T02:50:10;101079.75;;;17.19;84.69
67931;BME280;54726;52.000;5.954;2022-08-03T02:51:11;101078.06;;;17.18;84.81
67931;BME280;54726;52.000;5.954;2022-08-03T02:52:12;101075.56;;;17.15;85.16
67931;BME280;54726;52.000;5.954;2022-08-03T02:53:13;101076.44;;;17.15;84.99
67931;BME280;54726;52.000;5.954;2022-08-03T02:54:17;101080.72;;;17.18;84.99
67931;BME280;54726;52.000;5.954;2022-08-03T02:55:19;101078.13;;;17.16;85.23
67931;BME280;54726;52.000;5.954;2022-08-03T02:56:21;101075.78;;;17.12;85.10
67931;BME280;54726;52.000;5.954;2022-08-03T02:57:24;101064.28;;;17.10;85.37
67931;BME280;54726;52.000;5.954;2022-08-03T02:58:26;101075.56;;;17.15;85.30
67931;BME280;54726;52.000;5.954;2022-08-03T02:59:27;101061.69;;;17.08;84.97
67931;BME280;54726;52.000;5.954;2022-08-03T03:00:29;101072.97;;;17.13;85.04
67931;BME280;54726;52.000;5.954;2022-08-03T03:01:30;101072.25;;;17.11;85.41
67931;BME280;54726;52.000;5.954;2022-08-03T03:02:31;101082.19;;;17.09;85.33
67931;BME280;54726;52.000;5.954;2022-08-03T03:03:33;101074.22;;;17.08;85.28
67931;BME280;54726;52.000;5.954;2022-08-03T03:04:36;101076.25;;;17.04;85.42
67931;BME280;54726;52.000;5.954;2022-08-03T03:05:37;101070.97;;;17.03;85.51
67931;BME280;54726;52.000;5.954;2022-08-03T03:06:39;101082.59;;;17.03;85.70
67931;BME280;54726;52.000;5.954;2022-08-03T03:07:41;101081.69;;;17.03;85.59
67931;BME280;54726;52.000;5.954;2022-08-03T03:08:42;101073.66;;;17.03;85.66
67931;BME280;54726;52.000;5.954;2022-08-03T03:09:43;101076.47;;;17.01;85.70
67931;BME280;54726;52.000;5.954;2022-08-03T03:10:44;101067.66;;;16.99;85.64
67931;BME280;54726;52.000;5.954;2022-08-03T03:11:48;101073.31;;;16.94;85.97
67931;BME280;54726;52.000;5.954;2022-08-03T03:12:51;101072.34;;;16.95;86.02
67931;BME280;54726;52.000;5.954;2022-08-03T03:13:54;101074.19;;;16.95;86.15
67931;BME280;54726;52.000;5.954;2022-08-03T03:14:55;101071.69;;;16.92;86.19
67931;BME280;54726;52.000;5.954;2022-08-03T03:15:58;101076.84;;;16.95;86.06
67931;BME280;54726;52.000;5.954;2022-08-03T03:17:00;101080.47;;;16.94;86.04
67931;BME280;54726;52.000;5.954;2022-08-03T03:18:01;101076.09;;;16.93;86.01
67931;BME280;54726;52.000;5.954;2022-08-03T03:19:02;101073.31;;;16.94;85.98
67931;BME280;54726;52.000;5.954;2022-08-03T03:20:06;101078.69;;;16.94;86.03
67931;BME280;54726;52.000;5.954;2022-08-03T03:21:08;101079.63;;;16.93;85.79
67931;BME280;54726;52.000;5.954;2022-08-03T03:22:10;101084.13;;;16.93;86.11
67931;BME280;54726;52.000;5.954;2022-08-03T03:23:12;101074.56;;;16.89;86.16
67931;BME280;54726;52.000;5.954;2022-08-03T03:24:13;101083.53;;;16.88;86.43
67931;BME280;54726;52.000;5.954;2022-08-03T03:25:15;101073.47;;;16.91;86.30
67931;BME280;54726;52.000;5.954;2022-08-03T03:26:16;101075.31;;;16.91;86.09
67931;BME280;54726;52.000;5.954;2022-08-03T03:27:17;101073.59;;;16.90;86.18
67931;BME280;54726;52.000;5.954;2022-08-03T03:28:18;101073.59;;;16.90;86.19
67931;BME280;54726;52.000;5.954;2022-08-03T03:29:18;101071.00;;;16.88;86.16
67931;BME280;54726;52.000;5.954;2022-08-03T03:30:19;101070.34;;;16.85;86.17
67931;BME280;54726;52.000;5.954;2022-08-03T03:31:20;101075.63;;;16.86;86.27
67931;BME280;54726;52.000;5.954;2022-08-03T03:32:20;101066.91;;;16.83;86.34
67931;BME280;54726;52.000;5.954;2022-08-03T03:33:21;101069.56;;;16.83;86.25
67931;BME280;54726;52.000;5.954;2022-08-03T03:34:23;101072.25;;;16.83;86.39
67931;BME280;54726;52.000;5.954;2022-08-03T03:35:25;101060.88;;;16.79;86.35
67931;BME280;54726;52.000;5.954;2022-08-03T03:36:26;101060.78;;;16.81;86.43
67931;BME280;54726;52.000;5.954;2022-08-03T03:37:26;101065.19;;;16.82;86.38
67931;BME280;54726;52.000;5.954;2022-08-03T03:38:27;101047.19;;;16.69;86.31
67931;BME280;54726;52.000;5.954;2022-08-03T03:39:28;101063.56;;;16.79;86.44
67931;BME280;54726;52.000;5.954;2022-08-03T03:40:28;101074.28;;;16.79;86.48
67931;BME280;54726;52.000;5.954;2022-08-03T03:41:29;101065.38;;;16.78;86.58
67931;BME280;54726;52.000;5.954;2022-08-03T03:42:29;101054.91;;;16.74;86.57
67931;BME280;54726;52.000;5.954;2022-08-03T03:43:30;101036.84;;;16.63;86.55
67931;BME280;54726;52.000;5.954;2022-08-03T03:44:31;101069.78;;;16.80;86.70
67931;BME280;54726;52.000;5.954;2022-08-03T03:45:33;101070.75;;;16.78;86.68
67931;BME280;54726;52.000;5.954;2022-08-03T03:46:34;101057.91;;;16.69;86.63
67931;BME280;54726;52.000;5.954;2022-08-03T03:47:35;101065.47;;;16.77;86.71
67931;BME280;54726;52.000;5.954;2022-08-03T03:48:35;101073.59;;;16.75;86.77
67931;BME280;54726;52.000;5.954;2022-08-03T03:49:36;101074.53;;;16.74;86.75
67931;BME280;54726;52.000;5.954;2022-08-03T03:50:38;101064.78;;;16.73;86.72
67931;BME280;54726;52.000;5.954;2022-08-03T03:51:38;101071.09;;;16.72;86.81
67931;BME280;54726;52.000;5.954;2022-08-03T03:52:39;101068.41;;;16.72;86.89
67931;BME280;54726;52.000;5.954;2022-08-03T03:53:39;101072.03;;;16.71;86.83
67931;BME280;54726;52.000;5.954;2022-08-03T03:54:40;101066.69;;;16.71;86.95
67931;BME280;54726;52.000;5.954;2022-08-03T03:55:40;101063.44;;;16.66;86.84
67931;BME280;54726;52.000;5.954;2022-08-03T03:56:41;101070.41;;;16.69;87.05
67931;BME280;54726;52.000;5.954;2022-08-03T03:57:41;101072.34;;;16.67;87.03
67931;BME280;54726;52.000;5.954;2022-08-03T03:58:42;101069.75;;;16.65;87.10
67931;BME280;54726;52.000;5.954;2022-08-03T03:59:42;101067.94;;;16.66;87.09
67931;BME280;54726;52.000;5.954;2022-08-03T04:00:43;101075.88;;;16.67;87.09
67931;BME280;54726;52.000;5.954;2022-08-03T04:01:43;101072.34;;;16.67;87.12
67931;BME280;54726;52.000;5.954;2022-08-03T04:02:44;101062.75;;;16.63;87.10
67931;BME280;54726;52.000;5.954;2022-08-03T04:03:45;101079.50;;;16.66;87.02
67931;BME280;54726;52.000;5.954;2022-08-03T04:04:46;101081.31;;;16.66;87.08
67931;BME280;54726;52.000;5.954;2022-08-03T04:05:48;101079.69;;;16.63;87.02
67931;BME280;54726;52.000;5.954;2022-08-03T04:06:48;101076.16;;;16.63;87.10
67931;BME280;54726;52.000;5.954;2022-08-03T04:08:00;101077.13;;;16.62;87.32
67931;BME280;54726;52.000;5.954;2022-08-03T04:09:00;101074.53;;;16.60;86.93
67931;BME280;54726;52.000;5.954;2022-08-03T04:10:02;101075.22;;;16.64;87.17
67931;BME280;54726;52.000;5.954;2022-08-03T04:11:09;101079.69;;;16.63;87.21
67931;BME280;54726;52.000;5.954;2022-08-03T04:12:11;101079.69;;;16.63;87.11
67931;BME280;54726;52.000;5.954;2022-08-03T04:13:13;101072.81;;;16.59;87.08
67931;BME280;54726;52.000;5.954;2022-08-03T04:14:18;101079.69;;;16.63;87.14
67931;BME280;54726;52.000;5.954;2022-08-03T04:15:21;101071.00;;;16.60;86.99
67931;BME280;54726;52.000;5.954;2022-08-03T04:16:25;101058.19;;;16.50;87.14
67931;BME280;54726;52.000;5.954;2022-08-03T04:17:27;101078.75;;;16.64;87.09
67931;BME280;54726;52.000;5.954;2022-08-03T04:18:29;101079.81;;;16.62;87.20
67931;BME280;54726;52.000;5.954;2022-08-03T04:19:36;101073.59;;;16.61;87.23
67931;BME280;54726;52.000;5.954;2022-08-03T04:20:39;101070.91;;;16.61;87.28
67931;BME280;54726;52.000;5.954;2022-08-03T04:21:48;101074.44;;;16.62;87.28
67931;BME280;54726;52.000;5.954;2022-08-03T04:22:50;101077.97;;;16.62;87.25
67931;BME280;54726;52.000;5.954;2022-08-03T04:23:55;101072.81;;;16.59;87.21
67931;BME280;54726;52.000;5.954;2022-08-03T04:25:00;101070.13;;;16.59;87.17
67931;BME280;54726;52.000;5.954;2022-08-03T04:26:03;101077.97;;;16.62;87.24
67931;BME280;54726;52.000;5.954;2022-08-03T04:27:08;101081.63;;;16.61;87.29
67931;BME280;54726;52.000;5.954;2022-08-03T04:28:09;101079.59;;;16.65;87.22
67931;BME280;54726;52.000;5.954;2022-08-03T04:29:11;101081.44;;;16.64;87.58
67931;BME280;54726;52.000;5.954;2022-08-03T04:30:13;101085.81;;;16.65;87.42
67931;BME280;54726;52.000;5.954;2022-08-03T04:31:14;101077.78;;;16.65;87.42
67931;BME280;54726;52.000;5.954;2022-08-03T04:32:16;101077.00;;;16.63;87.54
67931;BME280;54726;52.000;5.954;2022-08-03T04:33:17;101069.16;;;16.60;87.58
67931;BME280;54726;52.000;5.954;2022-08-03T04:34:18;101078.75;;;16.64;87.48
67931;BME280;54726;52.000;5.954;2022-08-03T04:35:19;101082.16;;;16.66;87.56
67931;BME280;54726;52.000;5.954;2022-08-03T04:36:21;101076.81;;;16.66;87.48
67931;BME280;54726;52.000;5.954;2022-08-03T04:37:32;101079.50;;;16.66;87.26
67931;BME280;54726;52.000;5.954;2022-08-03T04:38:37;101082.09;;;16.68;87.47
67931;BME280;54726;52.000;5.954;2022-08-03T04:39:41;101078.44;;;16.69;87.55
67931;BME280;54726;52.000;5.954;2022-08-03T04:40:42;101071.47;;;16.66;87.38
67931;BME280;54726;52.000;5.954;2022-08-03T04:41:43;101072.88;;;16.72;87.41
67931;BME280;54726;52.000;5.954;2022-08-03T04:42:45;101075.50;;;16.73;87.41
67931;BME280;54726;52.000;5.954;2022-08-03T04:43:48;101073.78;;;16.72;87.34
67931;BME280;54726;52.000;5.954;2022-08-03T04:44:50;101079.78;;;16.76;87.37
67931;BME280;54726;52.000;5.954;2022-08-03T04:45:53;101079.56;;;16.81;87.45
67931;BME280;54726;52.000;5.954;2022-08-03T04:46:54;101075.91;;;16.82;87.46
67931;BME280;54726;52.000;5.954;2022-08-03T04:47:56;101082.69;;;16.87;87.23
67931;BME280;54726;52.000;5.954;2022-08-03T04:48:57;101079.72;;;16.92;87.29
67931;BME280;54726;52.000;5.954;2022-08-03T04:49:59;101077.91;;;16.92;87.28
67931;BME280;54726;52.000;5.954;2022-08-03T04:51:00;101084.69;;;16.98;87.21
67931;BME280;54726;52.000;5.954;2022-08-03T04:52:01;101083.53;;;17.02;87.13
67931;BME280;54726;52.000;5.954;2022-08-03T04:53:04;101090.44;;;17.06;87.20
67931;BME280;54726;52.000;5.954;2022-08-03T04:54:05;101084.00;;;17.09;87.00
67931;BME280;54726;52.000;5.954;2022-08-03T04:55:06;101082.19;;;17.09;87.06
67931;BME280;54726;52.000;5.954;2022-08-03T04:56:07;101089.06;;;17.13;87.15
67931;BME280;54726;52.000;5.954;2022-08-03T04:57:08;101083.50;;;17.16;87.17
67931;BME280;54726;52.000;5.954;2022-08-03T04:58:09;101091.34;;;17.19;87.21
67931;BME280;54726;52.000;5.954;2022-08-03T04:59:10;101093.84;;;17.22;87.05
67931;BME280;54726;52.000;5.954;2022-08-03T05:00:11;101093.72;;;17.24;87.11
67931;BME280;54726;52.000;5.954;2022-08-03T05:01:12;101084.84;;;17.23;87.24
67931;BME280;54726;52.000;5.954;2022-08-03T05:02:12;101089.13;;;17.26;87.36
67931;BME280;54726;52.000;5.954;2022-08-03T05:03:13;101088.94;;;17.29;87.30
67931;BME280;54726;52.000;5.954;2022-08-03T05:04:13;101096.88;;;17.31;87.12
67931;BME280;54726;52.000;5.954;2022-08-03T05:05:14;101094.94;;;17.33;87.21
67931;BME280;54726;52.000;5.954;2022-08-03T05:06:14;101092.19;;;17.34;87.18
67931;BME280;54726;52.000;5.954;2022-08-03T05:07:15;101095.59;;;17.36;86.97
67931;BME280;54726;52.000;5.954;2022-08-03T05:08:17;101097.34;;;17.37;87.18
67931;BME280;54726;52.000;5.954;2022-08-03T05:09:18;101096.38;;;17.38;87.26
67931;BME280;54726;52.000;5.954;2022-08-03T05:10:18;101097.22;;;17.39;87.32
67931;BME280;54726;52.000;5.954;2022-08-03T05:11:19;101089.09;;;17.40;87.33
67931;BME280;54726;52.000;5.954;2022-08-03T05:12:19;101097.91;;;17.42;87.26
67931;BME280;54726;52.000;5.954;2022-08-03T05:13:19;101098.66;;;17.44;87.41
67931;BME280;54726;52.000;5.954;2022-08-03T05:14:20;101101.25;;;17.46;87.33
67931;BME280;54726;52.000;5.954;2022-08-03T05:15:20;101095.59;;;17.51;87.43
67931;BME280;54726;52.000;5.954;2022-08-03T05:16:21;101103.22;;;17.57;87.29
67931;BME280;54726;52.000;5.954;2022-08-03T05:17:21;101101.19;;;17.60;87.28
67931;BME280;54726;52.000;5.954;2022-08-03T05:18:22;101103.66;;;17.63;87.00
67931;BME280;54726;52.000;5.954;2022-08-03T05:19:22;101105.41;;;17.64;87.11
67931;BME280;54726;52.000;5.954;2022-08-03T05:20:23;101100.91;;;17.65;87.33
67931;BME280;54726;52.000;5.954;2022-08-03T05:21:23;101107.88;;;17.67;87.06
67931;BME280;54726;52.000;5.954;2022-08-03T05:22:24;101096.38;;;17.65;87.08
67931;BME280;54726;52.000;5.954;2022-08-03T05:23:26;101101.75;;;17.65;87.16
67931;BME280;54726;52.000;5.954;2022-08-03T05:24:26;101107.13;;;17.65;87.33
67931;BME280;54726;52.000;5.954;2022-08-03T05:25:27;101101.75;;;17.65;87.34
67931;BME280;54726;52.000;5.954;2022-08-03T05:26:27;101101.75;;;17.65;87.54